sensor_id;sensor_type;location;lat;lon;timestamp;pressure;altitude;pressure_sealevel;temperature;humidity
42945;BME280;28584;42.636;23.294;2022-11-18T00:01:34;106253.31;;;8.17;100.00
42945;BME280;28584;42.636;23.294;2022-11-18T00:03:59;106519.38;;;8.26;100.00
42945;BME280;28584;42.636;23.294;2022-11-18T00:06:26;106940.72;;;8.26;100.00
42945;BME280;28584;42.636;23.294;2022-11-18T00:08:54;106949.19;;;8.22;100.00
42945;BME280;28584;42.636;23.294;2022-11-18T00:11:22;107086.38;;;8.10;100.00
42945;BME280;28584;42.636;23.294;2022-11-18T00:14:18;107234.50;;;8.13;100.00
42945;BME280;28584;42.636;23.294;2022-11-18T00:16:44;107568.63;;;8.11;100.00
42945;BME280;28584;42.636;23.294;2022-11-18T00:19:10;107518.03;;;8.04;100.00
42945;BME280;28584;42.636;23.294;2022-11-18T00:21:35;107434.91;;;8.28;100.00
42945;BME280;28584;42.636;23.294;2022-11-18T00:24:01;107373.84;;;8.29;100.00
42945;BME280;28584;42.636;23.294;2022-11-18T00:26:26;107932.91;;;8.27;100.00
42945;BME280;28584;42.636;23.294;2022-11-18T00:28:51;107872.59;;;8.11;100.00
42945;BME280;28584;42.636;23.294;2022-11-18T00:31:17;108176.97;;;8.03;100.00
42945;BME280;28584;42.636;23.294;2022-11-18T00:33:42;108350.97;;;7.98;100.00
42945;BME280;28584;42.636;23.294;2022-11-18T00:36:10;108646.28;;;8.12;100.00
42945;BME280;28584;42.636;23.294;2022-11-18T00:38:36;108695.84;;;8.00;100.00
42945;BME280;28584;42.636;23.294;2022-11-18T00:41:11;109017.03;;;8.05;100.00
42945;BME280;28584;42.636;23.294;2022-11-18T00:43:36;109078.78;;;8.11;100.00
42945;BME280;28584;42.636;23.294;2022-11-18T00:46:03;109364.84;;;8.04;100.00
42945;BME280;28584;42.636;23.294;2022-11-18T00:48:28;109359.44;;;8.01;100.00
42945;BME280;28584;42.636;23.294;2022-11-18T00:50:56;109287.44;;;8.04;100.00
42945;BME280;28584;42.636;23.294;2022-11-18T00:53:23;109043.94;;;8.20;100.00
42945;BME280;28584;42.636;23.294;2022-11-18T00:55:49;109075.75;;;8.23;100.00
42945;BME280;28584;42.636;23.294;2022-11-18T00:58:15;109337.13;;;8.24;100.00
42945;BME280;28584;42.636;23.294;2022-11-18T01:00:42;109485.56;;;8.23;100.00
42945;BME280;28584;42.636;23.294;2022-11-18T01:03:09;109505.59;;;8.25;100.00
42945;BME280;28584;42.636;23.294;2022-11-18T01:05:35;109553.97;;;8.18;100.00
42945;BME280;28584;42.636;23.294;2022-11-18T01:08:00;109404.56;;;8.20;100.00
42945;BME280;28584;42.636;23.294;2022-11-18T01:10:26;109330.78;;;8.20;100.00
42945;BME280;28584;42.636;23.294;2022-11-18T01:12:51;109247.06;;;8.18;100.00
42945;BME280;28584;42.636;23.294;2022-11-18T01:15:39;109134.56;;;8.01;100.00
42945;BME280;28584;42.636;23.294;2022-11-18T01:18:05;109001.22;;;8.18;100.00
42945;BME280;28584;42.636;23.294;2022-11-18T01:20:33;108716.56;;;8.07;100.00
42945;BME280;28584;42.636;23.294;2022-11-18T01:22:59;108570.97;;;8.05;100.00
42945;BME280;28584;42.636;23.294;2022-11-18T01:25:25;108531.03;;;8.02;100.00
42945;BME280;28584;42.636;23.294;2022-11-18T01:27:50;108359.94;;;8.01;100.00
42945;BME280;28584;42.636;23.294;2022-11-18T01:30:16;108306.03;;;7.83;100.00
42945;BME280;28584;42.636;23.294;2022-11-18T01:32:42;107996.94;;;7.77;100.00
42945;BME280;28584;42.636;23.294;2022-11-18T01:35:08;107689.16;;;7.65;100.00
42945;BME280;28584;42.636;23.294;2022-11-18T01:37:34;107355.75;;;7.75;100.00
42945;BME280;28584;42.636;23.294;2022-11-18T01:39:59;106979.31;;;7.89;100.00
42945;BME280;28584;42.636;23.294;2022-11-18T01:42:25;106986.47;;;7.92;100.00
42945;BME280;28584;42.636;23.294;2022-11-18T01:44:58;107216.59;;;7.75;100.00
42945;BME280;28584;42.636;23.294;2022-11-18T01:47:26;107513.34;;;7.89;100.00
42945;BME280;28584;42.636;23.294;2022-11-18T01:49:52;107564.38;;;7.87;100.00
42945;BME280;28584;42.636;23.294;2022-11-18T01:52:19;107557.28;;;7.83;100.00
42945;BME280;28584;42.636;23.294;2022-11-18T01:54:47;107724.88;;;7.79;100.00
42945;BME280;28584;42.636;23.294;2022-11-18T01:57:17;107645.66;;;7.80;100.00
42945;BME280;28584;42.636;23.294;2022-11-18T01:59:48;107782.44;;;7.73;100.00
42945;BME280;28584;42.636;23.294;2022-11-18T02:02:14;108084.38;;;7.74;100.00
42945;BME280;28584;42.636;23.294;2022-11-18T02:04:43;107841.31;;;7.78;100.00
42945;BME280;28584;42.636;23.294;2022-11-18T02:07:12;108109.06;;;7.71;100.00
42945;BME280;28584;42.636;23.294;2022-11-18T02:09:37;108020.63;;;7.76;100.00
42945;BME280;28584;42.636;23.294;2022-11-18T02:12:03;108283.97;;;7.65;100.00
42945;BME280;28584;42.636;23.294;2022-11-18T02:14:32;108470.06;;;7.48;100.00
42945;BME280;28584;42.636;23.294;2022-11-18T02:30:11;109530.91;;;7.28;100.00
42945;BME280;28584;42.636;23.294;2022-11-18T02:33:12;110146.63;;;7.19;100.00
42945;BME280;28584;42.636;23.294;2022-11-18T02:35:52;109852.44;;;7.66;100.00
42945;BME280;28584;42.636;23.294;2022-11-18T02:38:30;111650.66;;;7.43;100.00
42945;BME280;28584;42.636;23.294;2022-11-18T02:41:04;112718.53;;;7.46;100.00
42945;BME280;28584;42.636;23.294;2022-11-18T02:43:33;113203.94;;;7.48;100.00
42945;BME280;28584;42.636;23.294;2022-11-18T02:46:06;113892.88;;;7.40;100.00
42945;BME280;28584;42.636;23.294;2022-11-18T02:48:36;113971.44;;;7.60;100.00
42945;BME280;28584;42.636;23.294;2022-11-18T02:51:05;114782.16;;;7.71;100.00
42945;BME280;28584;42.636;23.294;2022-11-18T02:53:32;115150.13;;;7.67;100.00
42945;BME280;28584;42.636;23.294;2022-11-18T02:55:59;115624.81;;;7.54;100.00
42945;BME280;28584;42.636;23.294;2022-11-18T02:58:26;115503.66;;;7.55;100.00
42945;BME280;28584;42.636;23.294;2022-11-18T03:00:56;115359.63;;;7.42;100.00
42945;BME280;28584;42.636;23.294;2022-11-18T03:08:35;114961.25;;;7.27;100.00
42945;BME280;28584;42.636;23.294;2022-11-18T03:11:09;114661.44;;;7.37;100.00
42945;BME280;28584;42.636;23.294;2022-11-18T03:13:57;114281.53;;;7.50;100.00
42945;BME280;28584;42.636;23.294;2022-11-18T03:16:35;114134.00;;;7.36;100.00
42945;BME280;28584;42.636;23.294;2022-11-18T03:21:40;114284.94;;;7.32;100.00
42945;BME280;28584;42.636;23.294;2022-11-18T03:24:15;113944.38;;;7.48;100.00
42945;BME280;28584;42.636;23.294;2022-11-18T03:26:49;114478.25;;;7.36;100.00
42945;BME280;28584;42.636;23.294;2022-11-18T03:29:22;114711.78;;;7.41;100.00
42945;BME280;28584;42.636;23.294;2022-11-18T03:31:54;114476.72;;;7.54;100.00
42945;BME280;28584;42.636;23.294;2022-11-18T03:34:28;115195.47;;;7.52;100.00
42945;BME280;28584;42.636;23.294;2022-11-18T03:37:00;115028.53;;;7.62;100.00
42945;BME280;28584;42.636;23.294;2022-11-18T03:39:29;115374.09;;;7.53;100.00
42945;BME280;28584;42.636;23.294;2022-11-18T03:42:12;115844.69;;;7.36;100.00
42945;BME280;28584;42.636;23.294;2022-11-18T03:44:42;116094.66;;;7.39;100.00
42945;BME280;28584;42.636;23.294;2022-11-18T03:47:24;116272.31;;;7.29;100.00
42945;BME280;28584;42.636;23.294;2022-11-18T03:50:05;116606.09;;;7.14;100.00
42945;BME280;28584;42.636;23.294;2022-11-18T03:52:34;116863.34;;;7.00;100.00
42945;BME280;28584;42.636;23.294;2022-11-18T03:55:14;116744.06;;;7.09;100.00
42945;BME280;28584;42.636;23.294;2022-11-18T03:57:47;116833.75;;;7.13;100.00
42945;BME280;28584;42.636;23.294;2022-11-18T04:00:15;117002.22;;;7.21;100.00
42945;BME280;28584;42.636;23.294;2022-11-18T04:02:41;116879.91;;;7.10;100.00
42945;BME280;28584;42.636;23.294;2022-11-18T04:05:10;117138.09;;;7.13;100.00
42945;BME280;28584;42.636;23.294;2022-11-18T04:07:57;116931.78;;;7.35;100.00
42945;BME280;28584;42.636;23.294;2022-11-18T04:13:29;117235.31;;;7.35;100.00
42945;BME280;28584;42.636;23.294;2022-11-18T04:15:56;117870.06;;;7.23;100.00
42945;BME280;28584;42.636;23.294;2022-11-18T04:18:22;117955.28;;;7.34;100.00
42945;BME280;28584;42.636;23.294;2022-11-18T04:20:47;118257.13;;;7.42;100.00
42945;BME280;28584;42.636;23.294;2022-11-18T04:23:13;118365.50;;;7.55;100.00
42945;BME280;28584;42.636;23.294;2022-11-18T04:25:38;119314.41;;;7.44;100.00
42945;BME280;28584;42.636;23.294;2022-11-18T04:28:04;119465.53;;;7.36;100.00
42945;BME280;28584;42.636;23.294;2022-11-18T04:30:30;119648.50;;;7.45;100.00
42945;BME280;28584;42.636;23.294;2022-11-18T04:32:56;119659.78;;;7.54;100.00
42945;BME280;28584;42.636;23.294;2022-11-18T04:35:21;119705.28;;;7.41;100.00
42945;BME280;28584;42.636;23.294;2022-11-18T04:37:47;119882.22;;;7.17;100.00
42945;BME280;28584;42.636;23.294;2022-11-18T04:40:12;120010.22;;;7.25;100.00
42945;BME280;28584;42.636;23.294;2022-11-18T04:42:37;119537.47;;;7.60;100.00
42945;BME280;28584;42.636;23.294;2022-11-18T04:45:03;119423.31;;;7.46;100.00
42945;BME280;28584;42.636;23.294;2022-11-18T04:47:29;119645.63;;;7.38;100.00
42945;BME280;28584;42.636;23.294;2022-11-18T04:49:54;119597.31;;;7.39;100.00
42945;BME280;28584;42.636;23.294;2022-11-18T04:52:20;119527.97;;;7.51;100.00
42945;BME280;28584;42.636;23.294;2022-11-18T04:54:45;119362.34;;;7.35;100.00
42945;BME280;28584;42.636;23.294;2022-11-18T04:57:11;119415.56;;;7.37;100.00
42945;BME280;28584;42.636;23.294;2022-11-18T04:59:36;119320.78;;;7.25;100.00
42945;BME280;28584;42.636;23.294;2022-11-18T05:02:02;119432.47;;;7.22;100.00
42945;BME280;28584;42.636;23.294;2022-11-18T05:04:30;119246.28;;;7.08;100.00
42945;BME280;28584;42.636;23.294;2022-11-18T05:06:56;119005.41;;;7.26;100.00
42945;BME280;28584;42.636;23.294;2022-11-18T05:09:22;119334.25;;;7.11;100.00
42945;BME280;28584;42.636;23.294;2022-11-18T05:11:48;119464.88;;;7.19;100.00
42945;BME280;28584;42.636;23.294;2022-11-18T05:14:32;119100.84;;;7.17;100.00
42945;BME280;28584;42.636;23.294;2022-11-18T05:16:59;119406.63;;;6.95;100.00
42945;BME280;28584;42.636;23.294;2022-11-18T05:19:25;119373.94;;;7.02;100.00
42945;BME280;28584;42.636;23.294;2022-11-18T05:21:50;119348.13;;;7.00;100.00
42945;BME280;28584;42.636;23.294;2022-11-18T05:24:16;119400.31;;;6.89;100.00
42945;BME280;28584;42.636;23.294;2022-11-18T05:26:42;119360.69;;;7.05;100.00
42945;BME280;28584;42.636;23.294;2022-11-18T05:29:07;119405.13;;;7.09;100.00
42945;BME280;28584;42.636;23.294;2022-11-18T05:31:33;119078.16;;;7.31;100.00
42945;BME280;28584;42.636;23.294;2022-11-18T05:33:58;119398.81;;;7.16;100.00
42945;BME280;28584;42.636;23.294;2022-11-18T05:36:24;119654.25;;;7.11;100.00
42945;BME280;28584;42.636;23.294;2022-11-18T05:38:49;119710.63;;;7.34;100.00
42945;BME280;28584;42.636;23.294;2022-11-18T05:41:15;119100.38;;;7.66;100.00
42945;BME280;28584;42.636;23.294;2022-11-18T05:44:00;119098.28;;;7.70;100.00
42945;BME280;28584;42.636;23.294;2022-11-18T05:46:26;119097.59;;;7.85;100.00
42945;BME280;28584;42.636;23.294;2022-11-18T05:48:52;119207.81;;;7.97;100.00
42945;BME280;28584;42.636;23.294;2022-11-18T05:51:17;119027.19;;;8.18;100.00
42945;BME280;28584;42.636;23.294;2022-11-18T05:53:42;119167.28;;;8.40;100.00
42945;BME280;28584;42.636;23.294;2022-11-18T05:56:28;119283.09;;;8.52;100.00
42945;BME280;28584;42.636;23.294;2022-11-18T05:58:54;119465.53;;;8.50;100.00
42945;BME280;28584;42.636;23.294;2022-11-18T06:01:26;119344.50;;;8.67;100.00
42945;BME280;28584;42.636;23.294;2022-11-18T06:03:53;119285.66;;;8.58;100.00
42945;BME280;28584;42.636;23.294;2022-11-18T06:06:19;119135.56;;;8.76;100.00
42945;BME280;28584;42.636;23.294;2022-11-18T06:08:51;118871.50;;;8.91;100.00
42945;BME280;28584;42.636;23.294;2022-11-18T06:11:19;118716.94;;;8.91;100.00
42945;BME280;28584;42.636;23.294;2022-11-18T06:13:59;118659.44;;;8.70;100.00
42945;BME280;28584;42.636;23.294;2022-11-18T06:16:28;118765.19;;;8.82;100.00
42945;BME280;28584;42.636;23.294;2022-11-18T06:18:55;118535.78;;;8.89;100.00
42945;BME280;28584;42.636;23.294;2022-11-18T06:21:21;118006.69;;;8.91;100.00
42945;BME280;28584;42.636;23.294;2022-11-18T06:23:47;117916.19;;;8.82;100.00
42945;BME280;28584;42.636;23.294;2022-11-18T06:26:14;117962.88;;;8.75;100.00
42945;BME280;28584;42.636;23.294;2022-11-18T06:28:41;117686.81;;;8.66;100.00
42945;BME280;28584;42.636;23.294;2022-11-18T06:31:07;117470.16;;;8.73;100.00
42945;BME280;28584;42.636;23.294;2022-11-18T06:33:33;117510.75;;;8.77;100.00
42945;BME280;28584;42.636;23.294;2022-11-18T06:35:58;117488.69;;;8.75;100.00
42945;BME280;28584;42.636;23.294;2022-11-18T06:38:23;117306.31;;;8.87;100.00
42945;BME280;28584;42.636;23.294;2022-11-18T06:40:50;117487.91;;;8.76;100.00
42945;BME280;28584;42.636;23.294;2022-11-18T06:43:15;117201.63;;;8.91;100.00
42945;BME280;28584;42.636;23.294;2022-11-18T06:46:01;117309.88;;;8.86;100.00
42945;BME280;28584;42.636;23.294;2022-11-18T06:48:45;117539.50;;;8.80;100.00
42945;BME280;28584;42.636;23.294;2022-11-18T06:51:11;117813.47;;;8.87;100.00
42945;BME280;28584;42.636;23.294;2022-11-18T06:53:37;117737.69;;;8.88;100.00
42945;BME280;28584;42.636;23.294;2022-11-18T06:56:08;117701.16;;;8.63;100.00
42945;BME280;28584;42.636;23.294;2022-11-18T06:58:33;118098.53;;;8.63;100.00
42945;BME280;28584;42.636;23.294;2022-11-18T07:03:35;117913.66;;;8.68;100.00
42945;BME280;28584;42.636;23.294;2022-11-18T07:06:00;117885.81;;;8.72;100.00
42945;BME280;28584;42.636;23.294;2022-11-18T07:08:26;117713.25;;;8.65;100.00
42945;BME280;28584;42.636;23.294;2022-11-18T07:10:52;118013.94;;;8.66;100.00
42945;BME280;28584;42.636;23.294;2022-11-18T07:13:17;118224.25;;;8.60;100.00
42945;BME280;28584;42.636;23.294;2022-11-18T07:15:43;118060.06;;;8.70;100.00
42945;BME280;28584;42.636;23.294;2022-11-18T07:18:08;118189.44;;;8.59;100.00
42945;BME280;28584;42.636;23.294;2022-11-18T07:20:33;118161.06;;;8.74;100.00
42945;BME280;28584;42.636;23.294;2022-11-18T07:22:59;118233.94;;;8.72;100.00
42945;BME280;28584;42.636;23.294;2022-11-18T07:25:24;117961.53;;;9.11;100.00
42945;BME280;28584;42.636;23.294;2022-11-18T07:27:49;117715.03;;;9.14;100.00
42945;BME280;28584;42.636;23.294;2022-11-18T07:30:15;117668.19;;;8.96;100.00
42945;BME280;28584;42.636;23.294;2022-11-18T07:32:41;117657.06;;;8.94;100.00
42945;BME280;28584;42.636;23.294;2022-11-18T07:35:06;117153.03;;;9.07;100.00
42945;BME280;28584;42.636;23.294;2022-11-18T07:37:32;116832.16;;;9.26;100.00
42945;BME280;28584;42.636;23.294;2022-11-18T07:39:57;116258.38;;;9.73;100.00
42945;BME280;28584;42.636;23.294;2022-11-18T07:42:24;115562.38;;;9.99;100.00
42945;BME280;28584;42.636;23.294;2022-11-18T07:44:49;115341.97;;;10.28;100.00
42945;BME280;28584;42.636;23.294;2022-11-18T07:47:15;114588.13;;;10.50;100.00
42945;BME280;28584;42.636;23.294;2022-11-18T07:49:40;112287.50;;;10.56;100.00
42945;BME280;28584;42.636;23.294;2022-11-18T07:52:05;110381.06;;;10.08;100.00
42945;BME280;28584;42.636;23.294;2022-11-18T07:54:31;106800.50;;;9.24;100.00
42945;BME280;28584;42.636;23.294;2022-11-18T07:56:56;105719.25;;;9.49;100.00
42945;BME280;28584;42.636;23.294;2022-11-18T07:59:21;104197.81;;;9.75;100.00
42945;BME280;28584;42.636;23.294;2022-11-18T08:01:47;102779.16;;;10.39;100.00
42945;BME280;28584;42.636;23.294;2022-11-18T08:04:12;103161.97;;;10.48;100.00
42945;BME280;28584;42.636;23.294;2022-11-18T08:06:38;104545.22;;;10.34;100.00
42945;BME280;28584;42.636;23.294;2022-11-18T08:09:04;103195.50;;;10.29;100.00
42945;BME280;28584;42.636;23.294;2022-11-18T08:11:30;103504.78;;;10.65;100.00
42945;BME280;28584;42.636;23.294;2022-11-18T08:13:55;103059.75;;;10.69;100.00
42945;BME280;28584;42.636;23.294;2022-11-18T08:16:23;101900.06;;;10.97;100.00
42945;BME280;28584;42.636;23.294;2022-11-18T08:18:49;100293.72;;;10.98;100.00
42945;BME280;28584;42.636;23.294;2022-11-18T08:21:16;96946.94;;;11.16;100.00
42945;BME280;28584;42.636;23.294;2022-11-18T08:23:42;93919.06;;;11.27;100.00
42945;BME280;28584;42.636;23.294;2022-11-18T08:26:13;90832.16;;;11.03;100.00
42945;BME280;28584;42.636;23.294;2022-11-18T08:28:40;85707.53;;;10.84;100.00
42945;BME280;28584;42.636;23.294;2022-11-18T08:33:34;81011.81;;;10.86;100.00
42945;BME280;28584;42.636;23.294;2022-11-18T08:36:05;80213.44;;;10.93;100.00
42945;BME280;28584;42.636;23.294;2022-11-18T08:38:31;79498.19;;;10.98;100.00
42945;BME280;28584;42.636;23.294;2022-11-18T08:40:56;79022.00;;;10.89;100.00
42945;BME280;28584;42.636;23.294;2022-11-18T08:43:22;78576.88;;;10.86;100.00
42945;BME280;28584;42.636;23.294;2022-11-18T08:45:47;78733.44;;;10.74;100.00
42945;BME280;28584;42.636;23.294;2022-11-18T08:48:13;78855.31;;;10.72;100.00
42945;BME280;28584;42.636;23.294;2022-11-18T08:50:38;79233.44;;;10.80;100.00
42945;BME280;28584;42.636;23.294;2022-11-18T08:53:03;80335.16;;;10.80;100.00
42945;BME280;28584;42.636;23.294;2022-11-18T08:55:29;81391.81;;;10.75;100.00
42945;BME280;28584;42.636;23.294;2022-11-18T08:57:54;81917.81;;;10.73;100.00
42945;BME280;28584;42.636;23.294;2022-11-18T09:00:20;82233.94;;;10.88;100.00
42945;BME280;28584;42.636;23.294;2022-11-18T09:02:45;83145.47;;;10.81;100.00
42945;BME280;28584;42.636;23.294;2022-11-18T09:05:10;83816.66;;;10.66;100.00
42945;BME280;28584;42.636;23.294;2022-11-18T09:07:36;83619.31;;;10.81;100.00
42945;BME280;28584;42.636;23.294;2022-11-18T09:10:01;86407.06;;;10.80;100.00
42945;BME280;28584;42.636;23.294;2022-11-18T09:12:27;88155.47;;;10.82;100.00
42945;BME280;28584;42.636;23.294;2022-11-18T09:14:52;89291.44;;;10.96;100.00
42945;BME280;28584;42.636;23.294;2022-11-18T09:17:17;92192.72;;;11.03;100.00
42945;BME280;28584;42.636;23.294;2022-11-18T09:19:43;96585.72;;;11.09;100.00
42945;BME280;28584;42.636;23.294;2022-11-18T09:22:09;99744.84;;;11.10;100.00
42945;BME280;28584;42.636;23.294;2022-11-18T09:24:34;96667.06;;;10.74;100.00
42945;BME280;28584;42.636;23.294;2022-11-18T09:27:04;96360.88;;;10.93;100.00
42945;BME280;28584;42.636;23.294;2022-11-18T09:29:31;108026.50;;;10.88;100.00
42945;BME280;28584;42.636;23.294;2022-11-18T09:31:57;115984.22;;;10.84;100.00
42945;BME280;28584;42.636;23.294;2022-11-18T09:34:26;119037.00;;;10.92;100.00
42945;BME280;28584;42.636;23.294;2022-11-18T09:36:53;115102.50;;;10.78;100.00
42945;BME280;28584;42.636;23.294;2022-11-18T09:39:22;117952.84;;;10.82;100.00
42945;BME280;28584;42.636;23.294;2022-11-18T09:47:32;126913.31;;;10.90;100.00
42945;BME280;28584;42.636;23.294;2022-11-18T09:50:02;127470.84;;;10.91;100.00
42945;BME280;28584;42.636;23.294;2022-11-18T09:53:08;127979.78;;;11.10;100.00
42945;BME280;28584;42.636;23.294;2022-11-18T09:55:37;143855.38;;;11.13;100.00
42945;BME280;28584;42.636;23.294;2022-11-18T09:58:04;160644.41;;;11.25;100.00
42945;BME280;28584;42.636;23.294;2022-11-18T10:00:30;161580.56;;;11.37;100.00
42945;BME280;28584;42.636;23.294;2022-11-18T10:05:25;161572.53;;;11.34;100.00
42945;BME280;28584;42.636;23.294;2022-11-18T10:11:06;161628.69;;;11.55;100.00
42945;BME280;28584;42.636;23.294;2022-11-18T10:19:23;161650.13;;;11.63;100.00
42945;BME280;28584;42.636;23.294;2022-11-18T10:24:36;161674.22;;;11.72;100.00
42945;BME280;28584;42.636;23.294;2022-11-18T10:27:09;161709.00;;;11.85;100.00
42945;BME280;28584;42.636;23.294;2022-11-18T10:29:34;161672.84;;;11.71;100.00
42945;BME280;28584;42.636;23.294;2022-11-18T10:32:07;161679.56;;;11.74;100.00
42945;BME280;28584;42.636;23.294;2022-11-18T10:34:49;161737.03;;;11.95;100.00
42945;BME280;28584;42.636;23.294;2022-11-18T10:37:32;161781.22;;;12.12;100.00
42945;BME280;28584;42.636;23.294;2022-11-18T10:40:00;161775.84;;;12.10;100.00
42945;BME280;28584;42.636;23.294;2022-11-18T10:42:29;161751.75;;;12.01;100.00
42945;BME280;28584;42.636;23.294;2022-11-18T10:50:49;161793.22;;;12.16;100.00
42945;BME280;28584;42.636;23.294;2022-11-18T10:53:31;161872.13;;;12.46;100.00
42945;BME280;28584;42.636;23.294;2022-11-18T10:56:00;161904.28;;;12.58;100.00
42945;BME280;28584;42.636;23.294;2022-11-18T10:58:28;162035.47;;;13.07;100.00
42945;BME280;28584;42.636;23.294;2022-11-18T11:01:20;162185.41;;;13.63;100.00
42945;BME280;28584;42.636;23.294;2022-11-18T11:03:59;162340.78;;;14.21;100.00
42945;BME280;28584;42.636;23.294;2022-11-18T11:11:38;162204.16;;;13.70;100.00
42945;BME280;28584;42.636;23.294;2022-11-18T11:17:08;162370.28;;;14.32;100.00
42945;BME280;28584;42.636;23.294;2022-11-18T11:19:39;162315.34;;;14.12;100.00
42945;BME280;28584;42.636;23.294;2022-11-18T11:22:10;162236.31;;;13.82;100.00
42945;BME280;28584;42.636;23.294;2022-11-18T11:24:36;162308.66;;;14.09;100.00
42945;BME280;28584;42.636;23.294;2022-11-18T11:27:22;162344.84;;;14.23;100.00
42945;BME280;28584;42.636;23.294;2022-11-18T11:37:58;162616.91;;;15.24;100.00
42945;BME280;28584;42.636;23.294;2022-11-18T11:40:54;162425.25;;;14.53;100.00
42945;BME280;28584;42.636;23.294;2022-11-18T11:52:28;162295.22;;;14.04;100.00
42945;BME280;28584;42.636;23.294;2022-11-18T11:55:14;162197.47;;;13.67;100.00
42945;BME280;28584;42.636;23.294;2022-11-18T11:58:03;162182.72;;;13.62;100.00
42945;BME280;28584;42.636;23.294;2022-11-18T12:00:39;162162.63;;;13.54;100.00
42945;BME280;28584;42.636;23.294;2022-11-18T12:03:22;162165.34;;;13.55;100.00
42945;BME280;28584;42.636;23.294;2022-11-18T12:05:54;162154.59;;;13.51;100.00
42945;BME280;28584;42.636;23.294;2022-11-18T12:08:23;162072.94;;;13.21;100.00
42945;BME280;28584;42.636;23.294;2022-11-18T12:10:58;162099.72;;;13.31;100.00
42945;BME280;28584;42.636;23.294;2022-11-18T12:16:41;162198.81;;;13.68;100.00
42945;BME280;28584;42.636;23.294;2022-11-18T12:19:14;162217.56;;;13.75;100.00
42945;BME280;28584;42.636;23.294;2022-11-18T12:26:46;162241.63;;;13.84;100.00
42945;BME280;28584;42.636;23.294;2022-11-18T12:31:51;162271.16;;;13.95;100.00
42945;BME280;28584;42.636;23.294;2022-11-18T12:36:50;162355.56;;;14.27;100.00
42945;BME280;28584;42.636;23.294;2022-11-18T12:41:57;162460.06;;;14.66;100.00
42945;BME280;28584;42.636;23.294;2022-11-18T12:44:43;162504.31;;;14.82;100.00
42945;BME280;28584;42.636;23.294;2022-11-18T12:47:13;162576.66;;;15.09;88.81
42945;BME280;28584;42.636;23.294;2022-11-18T12:54:55;162614.25;;;15.23;79.73
42945;BME280;28584;42.636;23.294;2022-11-18T12:57:33;162602.16;;;15.19;81.08
42945;BME280;28584;42.636;23.294;2022-11-18T13:02:59;162624.97;;;15.27;80.99
42945;BME280;28584;42.636;23.294;2022-11-18T13:05:30;162655.84;;;15.39;81.38
42945;BME280;28584;42.636;23.294;2022-11-18T13:08:00;162654.50;;;15.38;78.83
42945;BME280;28584;42.636;23.294;2022-11-18T13:10:52;162620.94;;;15.26;78.91
42945;BME280;28584;42.636;23.294;2022-11-18T13:13:38;162616.91;;;15.24;78.99
42945;BME280;28584;42.636;23.294;2022-11-18T13:16:17;162615.53;;;15.24;78.56
42945;BME280;28584;42.636;23.294;2022-11-18T13:19:01;162608.84;;;15.21;77.35
42945;BME280;28584;42.636;23.294;2022-11-18T13:21:28;162603.47;;;15.19;79.29
42945;BME280;28584;42.636;23.294;2022-11-18T13:24:14;162594.13;;;15.16;79.55
42945;BME280;28584;42.636;23.294;2022-11-18T13:26:42;162578.00;;;15.10;80.18
42945;BME280;28584;42.636;23.294;2022-11-18T13:29:26;162578.00;;;15.10;80.45
42945;BME280;28584;42.636;23.294;2022-11-18T13:34:23;162572.69;;;15.08;78.32
42945;BME280;28584;42.636;23.294;2022-11-18T13:36:54;162569.97;;;15.07;77.72
42945;BME280;28584;42.636;23.294;2022-11-18T13:39:27;162561.91;;;15.04;79.13
42945;BME280;28584;42.636;23.294;2022-11-18T13:44:27;162568.66;;;15.06;80.77
42945;BME280;28584;42.636;23.294;2022-11-18T13:47:05;162556.59;;;15.02;80.15
42945;BME280;28584;42.636;23.294;2022-11-18T13:55:26;162547.19;;;14.98;85.61
42945;BME280;28584;42.636;23.294;2022-11-18T14:00:41;162537.81;;;14.95;86.81
42945;BME280;28584;42.636;23.294;2022-11-18T14:06:37;162525.75;;;14.90;84.24
42945;BME280;28584;42.636;23.294;2022-11-18T14:09:28;162552.56;;;15.00;79.70
42945;BME280;28584;42.636;23.294;2022-11-18T14:12:06;162563.28;;;15.04;76.24
42945;BME280;28584;42.636;23.294;2022-11-18T14:14:39;162578.00;;;15.10;74.98
42945;BME280;28584;42.636;23.294;2022-11-18T14:19:40;162574.00;;;15.08;73.80
42945;BME280;28584;42.636;23.294;2022-11-18T14:22:12;162572.69;;;15.08;72.92
42945;BME280;28584;42.636;23.294;2022-11-18T14:24:40;162594.13;;;15.16;71.52
42945;BME280;28584;42.636;23.294;2022-11-18T14:30:25;162579.38;;;15.10;72.06
42945;BME280;28584;42.636;23.294;2022-11-18T14:33:14;162582.03;;;15.11;72.45
42945;BME280;28584;42.636;23.294;2022-11-18T14:35:48;162569.97;;;15.07;73.60
42945;BME280;28584;42.636;23.294;2022-11-18T14:40:43;162588.72;;;15.14;71.47
42945;BME280;28584;42.636;23.294;2022-11-18T14:43:11;162595.41;;;15.16;68.75
42945;BME280;28584;42.636;23.294;2022-11-18T14:45:37;162602.16;;;15.19;71.72
42945;BME280;28584;42.636;23.294;2022-11-18T14:48:03;162587.41;;;15.13;72.71
42945;BME280;28584;42.636;23.294;2022-11-18T14:50:29;162592.75;;;15.15;71.83
42945;BME280;28584;42.636;23.294;2022-11-18T14:52:54;162578.00;;;15.10;74.51
42945;BME280;28584;42.636;23.294;2022-11-18T14:55:20;162492.25;;;14.78;87.64
42945;BME280;28584;42.636;23.294;2022-11-18T14:57:45;162354.19;;;14.26;100.00
42945;BME280;28584;42.636;23.294;2022-11-18T15:00:13;162212.19;;;13.73;100.00